Time;durP1;ratioP1;P1;durP2;ratioP2;P2;SDS_P1;SDS_P2;PMS_P1;PMS_P2;Temp;Humidity;BMP_temperature;BMP_pressure;BME280_temperature;BME280_humidity;BME280_pressure;Samples;Min_cycle;Max_cycle;Signal;HPM_P1;HPM_P2
2021/07/25 00:00:37;;;;;;;12.60;8.85;;;;;;;;;;5043049;28;20025;-81
2021/07/25 00:03:03;;;;;;;12.75;8.23;;;;;;;;;;5039318;28;20028;-81
2021/07/25 00:05:29;;;;;;;13.20;8.38;;;;;;;;;;5041945;28;20097;-81
2021/07/25 00:07:54;;;;;;;15.77;9.98;;;;;;;;;;5044559;28;20120;-81
2021/07/25 00:10:20;;;;;;;14.75;8.80;;;;;;;;;;5043308;28;20050;-81
2021/07/25 00:12:45;;;;;;;13.68;8.65;;;;;;;;;;5040020;28;20017;-81
2021/07/25 00:15:11;;;;;;;13.73;8.95;;;;;;;;;;5048351;28;20451;-81
2021/07/25 00:17:37;;;;;;;15.32;9.68;;;;;;;;;;5043556;28;20109;-82
2021/07/25 00:20:03;;;;;;;14.98;9.23;;;;;;;;;;5038181;28;20112;-82
2021/07/25 00:22:28;;;;;;;16.92;9.38;;;;;;;;;;5042527;28;20068;-81
2021/07/25 00:25:07;;;;;;;16.58;9.85;;;;;;;;;;5031569;28;20489;-80
2021/07/25 00:27:34;;;;;;;15.35;9.48;;;;;;;;;;5039828;28;20035;-82
2021/07/25 00:29:59;;;;;;;17.05;9.85;;;;;;;;;;5043589;28;20037;-82
2021/07/25 00:32:25;;;;;;;13.75;9.55;;;;;;;;;;5043879;28;20029;-82
2021/07/25 00:34:52;;;;;;;14.70;8.82;;;;;;;;;;5037041;28;20075;-82
2021/07/25 00:37:18;;;;;;;15.05;8.43;;;;;;;;;;5043858;28;20104;-82
2021/07/25 00:39:43;;;;;;;16.45;10.13;;;;;;;;;;5046597;28;20507;-82
2021/07/25 00:42:09;;;;;;;12.30;9.45;;;;;;;;;;5046430;28;20151;-81
2021/07/25 00:44:34;;;;;;;11.70;8.27;;;;;;;;;;5045236;28;20025;-80
2021/07/25 00:47:01;;;;;;;13.80;8.90;;;;;;;;;;5045828;28;20021;-82
2021/07/25 00:49:28;;;;;;;13.77;8.60;;;;;;;;;;5042064;28;20477;-80
2021/07/25 00:51:54;;;;;;;12.05;8.25;;;;;;;;;;5045685;28;20021;-80
2021/07/25 00:54:21;;;;;;;14.85;9.10;;;;;;;;;;5041578;28;20044;-80
2021/07/25 00:56:47;;;;;;;14.80;9.70;;;;;;;;;;5041542;28;20133;-80
2021/07/25 00:59:13;;;;;;;12.73;9.38;;;;;;;;;;5037909;28;20446;-80
2021/07/25 01:01:38;;;;;;;17.27;8.98;;;;;;;;;;5042847;28;20025;-80
2021/07/25 01:04:33;;;;;;;14.60;8.77;;;;;;;;;;5042879;28;20028;-80
2021/07/25 01:07:14;;;;;;;12.05;9.18;;;;;;;;;;5037930;28;20033;-80
2021/07/25 01:09:53;;;;;;;16.17;9.10;;;;;;;;;;5045772;28;20080;-81
2021/07/25 01:12:25;;;;;;;13.95;8.45;;;;;;;;;;5042523;28;20546;-81
2021/07/25 01:14:53;;;;;;;18.33;9.38;;;;;;;;;;5038590;28;20029;-82
2021/07/25 01:17:33;;;;;;;18.80;8.60;;;;;;;;;;5044112;28;20408;-80
2021/07/25 01:20:00;;;;;;;14.77;9.07;;;;;;;;;;5043185;28;20021;-81
2021/07/25 01:22:28;;;;;;;12.48;8.98;;;;;;;;;;5035074;28;20020;-82
2021/07/25 01:24:54;;;;;;;16.80;8.52;;;;;;;;;;5040864;28;20017;-80
2021/07/25 01:27:47;;;;;;;15.20;9.20;;;;;;;;;;5037605;28;20082;-81
2021/07/25 01:30:17;;;;;;;15.32;9.40;;;;;;;;;;5040136;28;20025;-81
2021/07/25 01:32:43;;;;;;;13.57;8.65;;;;;;;;;;5042157;28;20447;-81
2021/07/25 01:35:12;;;;;;;11.85;9.07;;;;;;;;;;5042624;28;20075;-82
2021/07/25 01:37:38;;;;;;;18.98;8.95;;;;;;;;;;5044701;28;20180;-80
2021/07/25 01:40:20;;;;;;;13.38;9.45;;;;;;;;;;5038354;28;20448;-81
2021/07/25 01:42:45;;;;;;;14.15;9.00;;;;;;;;;;5030370;28;20452;-80
2021/07/25 01:45:12;;;;;;;12.52;8.45;;;;;;;;;;5035590;28;20021;-80
2021/07/25 01:47:38;;;;;;;13.70;8.77;;;;;;;;;;5045423;28;20029;-80
2021/07/25 01:50:04;;;;;;;13.13;8.75;;;;;;;;;;5045594;28;20610;-80
2021/07/25 01:52:30;;;;;;;12.73;8.55;;;;;;;;;;5038760;28;20481;-81
2021/07/25 01:54:56;;;;;;;12.50;8.95;;;;;;;;;;5043710;28;20078;-80
2021/07/25 01:57:21;;;;;;;16.55;9.40;;;;;;;;;;5040547;28;20044;-81
2021/07/25 01:59:47;;;;;;;12.70;7.78;;;;;;;;;;5036006;28;20292;-81
2021/07/25 02:02:12;;;;;;;12.70;8.40;;;;;;;;;;5038339;28;20029;-80
2021/07/25 02:04:38;;;;;;;15.38;7.63;;;;;;;;;;5045486;28;20052;-81
2021/07/25 02:07:05;;;;;;;14.35;9.27;;;;;;;;;;5046184;28;20032;-82
2021/07/25 02:09:35;;;;;;;16.95;9.00;;;;;;;;;;5043391;28;20021;-81
2021/07/25 02:12:03;;;;;;;16.02;8.80;;;;;;;;;;5035855;28;20516;-81
2021/07/25 02:14:28;;;;;;;14.18;8.85;;;;;;;;;;5030882;28;20514;-81
2021/07/25 02:16:53;;;;;;;13.65;8.02;;;;;;;;;;5037299;28;20064;-81
2021/07/25 02:19:19;;;;;;;12.27;8.32;;;;;;;;;;5044478;28;20021;-80
2021/07/25 02:21:44;;;;;;;16.40;8.30;;;;;;;;;;5039845;28;20028;-81
2021/07/25 02:24:10;;;;;;;11.63;7.90;;;;;;;;;;5047478;28;20477;-81
2021/07/25 02:26:35;;;;;;;12.65;7.43;;;;;;;;;;5036165;28;20398;-81
2021/07/25 02:29:01;;;;;;;10.95;7.82;;;;;;;;;;5040661;28;20024;-80
2021/07/25 02:31:26;;;;;;;13.57;8.57;;;;;;;;;;5038385;28;20032;-81
2021/07/25 02:33:52;;;;;;;12.18;8.10;;;;;;;;;;5044887;28;20044;-81
2021/07/25 02:36:17;;;;;;;13.23;8.48;;;;;;;;;;5048456;28;20021;-81
2021/07/25 02:38:42;;;;;;;17.88;8.70;;;;;;;;;;5048178;28;20440;-81
2021/07/25 02:41:08;;;;;;;13.35;7.65;;;;;;;;;;5044757;28;20051;-81
2021/07/25 02:43:33;;;;;;;13.00;8.25;;;;;;;;;;5045156;28;20048;-81
2021/07/25 02:46:02;;;;;;;12.70;8.23;;;;;;;;;;5053997;28;20104;-80
2021/07/25 02:48:27;;;;;;;10.65;8.20;;;;;;;;;;5042180;28;20029;-81
2021/07/25 02:50:53;;;;;;;10.55;7.82;;;;;;;;;;5051434;28;20476;-81
2021/07/25 02:53:18;;;;;;;11.68;8.20;;;;;;;;;;5049710;28;20021;-81
2021/07/25 02:55:44;;;;;;;12.43;7.72;;;;;;;;;;5047484;28;20051;-80
2021/07/25 02:58:09;;;;;;;13.25;8.27;;;;;;;;;;5045558;28;20095;-81
2021/07/25 03:00:34;;;;;;;13.95;8.55;;;;;;;;;;5041492;28;20029;-81
2021/07/25 03:03:00;;;;;;;12.65;8.43;;;;;;;;;;5046288;28;20531;-81
2021/07/25 03:05:26;;;;;;;11.65;8.23;;;;;;;;;;5043211;28;20472;-80
2021/07/25 03:07:52;;;;;;;16.17;8.82;;;;;;;;;;5038931;28;20045;-80
2021/07/25 03:10:18;;;;;;;14.20;8.40;;;;;;;;;;5051433;28;20037;-80
2021/07/25 03:12:44;;;;;;;10.45;8.07;;;;;;;;;;5046685;28;20041;-80
2021/07/25 03:15:10;;;;;;;14.73;7.90;;;;;;;;;;5054092;28;20028;-81
2021/07/25 03:17:35;;;;;;;11.98;7.80;;;;;;;;;;5051234;28;20036;-80
2021/07/25 03:20:01;;;;;;;455.85;56.88;;;;;;;;;;5052136;28;20033;-80
2021/07/25 03:22:27;;;;;;;15.80;9.07;;;;;;;;;;5053535;28;20029;-80
2021/07/25 03:24:52;;;;;;;11.90;8.80;;;;;;;;;;5040840;28;20423;-81
2021/07/25 03:27:17;;;;;;;16.02;9.40;;;;;;;;;;5045799;28;20068;-80
2021/07/25 03:29:43;;;;;;;12.90;9.73;;;;;;;;;;5049039;28;20488;-81
2021/07/25 03:32:08;;;;;;;16.05;9.40;;;;;;;;;;5050126;28;20394;-80
2021/07/25 03:34:34;;;;;;;18.55;10.00;;;;;;;;;;5041644;28;20087;-80
2021/07/25 03:37:00;;;;;;;14.73;9.32;;;;;;;;;;5053972;28;20025;-80
2021/07/25 03:39:27;;;;;;;17.35;9.75;;;;;;;;;;5049210;28;20033;-80
2021/07/25 03:41:52;;;;;;;15.57;9.68;;;;;;;;;;5051416;28;20115;-80
2021/07/25 03:44:18;;;;;;;14.48;9.82;;;;;;;;;;5040249;28;20099;-80
2021/07/25 03:46:43;;;;;;;15.07;9.50;;;;;;;;;;5042443;28;20033;-80
2021/07/25 03:49:09;;;;;;;13.70;8.95;;;;;;;;;;5049216;28;20326;-80
2021/07/25 03:51:37;;;;;;;13.35;7.95;;;;;;;;;;5046496;28;20097;-81
2021/07/25 03:54:06;;;;;;;12.95;8.18;;;;;;;;;;5042780;28;20491;-80
2021/07/25 03:56:34;;;;;;;11.52;8.35;;;;;;;;;;5043242;28;20037;-80
2021/07/25 03:58:59;;;;;;;13.07;8.82;;;;;;;;;;5037003;28;20017;-80
2021/07/25 04:01:25;;;;;;;12.13;8.75;;;;;;;;;;5042841;28;20514;-81
2021/07/25 04:03:50;;;;;;;12.93;8.73;;;;;;;;;;5047543;28;20436;-80
2021/07/25 04:06:16;;;;;;;10.35;8.13;;;;;;;;;;5041567;28;20051;-80
2021/07/25 04:08:41;;;;;;;12.55;8.73;;;;;;;;;;5042248;28;20493;-80
2021/07/25 04:11:06;;;;;;;14.35;8.27;;;;;;;;;;5049355;28;20028;-80
2021/07/25 04:13:32;;;;;;;12.13;8.32;;;;;;;;;;5040668;28;20468;-80
2021/07/25 04:15:57;;;;;;;14.70;8.43;;;;;;;;;;5042978;28;20025;-80
2021/07/25 04:18:23;;;;;;;12.57;8.85;;;;;;;;;;5040153;28;20595;-80
2021/07/25 04:20:48;;;;;;;12.00;8.20;;;;;;;;;;5048252;28;20026;-80
2021/07/25 04:23:14;;;;;;;13.57;7.95;;;;;;;;;;5036855;28;20492;-80
2021/07/25 04:25:39;;;;;;;10.80;8.27;;;;;;;;;;5038769;28;20025;-80
2021/07/25 04:28:05;;;;;;;15.90;9.48;;;;;;;;;;5039276;28;20047;-80
2021/07/25 04:30:32;;;;;;;16.92;9.02;;;;;;;;;;5047991;28;20472;-80
2021/07/25 04:32:59;;;;;;;12.68;9.13;;;;;;;;;;5042725;28;20025;-80
2021/07/25 04:35:25;;;;;;;15.05;8.63;;;;;;;;;;5036987;28;20025;-80
2021/07/25 04:37:55;;;;;;;12.55;8.15;;;;;;;;;;5041972;28;20098;-80
2021/07/25 04:40:21;;;;;;;13.10;8.43;;;;;;;;;;5035470;28;20037;-81
2021/07/25 04:42:51;;;;;;;13.75;8.55;;;;;;;;;;5040320;28;20302;-80
2021/07/25 04:45:21;;;;;;;;;;;;;;;;;;5044706;28;20021;-79
2021/07/25 04:48:06;;;;;;;15.68;8.60;;;;;;;;;;5044859;28;19947;-80
2021/07/25 04:50:37;;;;;;;21.33;13.25;;;;;;;;;;5043747;28;20143;-80
2021/07/25 04:53:05;;;;;;;16.98;11.27;;;;;;;;;;5036057;28;20094;-80
2021/07/25 04:55:35;;;;;;;15.23;10.18;;;;;;;;;;5037957;28;20025;-80
2021/07/25 04:58:06;;;;;;;16.25;8.98;;;;;;;;;;5035245;28;20033;-80
2021/07/25 05:00:37;;;;;;;16.95;8.75;;;;;;;;;;5040048;28;20030;-80
2021/07/25 05:03:05;;;;;;;14.32;10.13;;;;;;;;;;5043032;28;20044;-80
2021/07/25 05:05:32;;;;;;;11.70;8.60;;;;;;;;;;5034066;28;20036;-80
2021/07/25 05:08:01;;;;;;;19.48;10.15;;;;;;;;;;5041164;28;20037;-80
2021/07/25 05:10:28;;;;;;;14.10;9.63;;;;;;;;;;5045306;28;20060;-78
2021/07/25 05:13:07;;;;;;;13.75;8.77;;;;;;;;;;5043022;28;20040;-79
2021/07/25 05:15:41;;;;;;;12.30;8.95;;;;;;;;;;5062410;28;20112;-78
2021/07/25 05:18:12;;;;;;;13.95;9.25;;;;;;;;;;5035900;28;20017;-79
2021/07/25 05:20:57;;;;;;;15.48;9.13;;;;;;;;;;5046286;28;20025;-78
2021/07/25 05:23:51;;;;;;;12.85;9.05;;;;;;;;;;5040060;28;20030;-78
2021/07/25 05:26:23;;;;;;;14.13;9.18;;;;;;;;;;5045903;28;20149;-79
2021/07/25 05:28:53;;;;;;;12.80;8.93;;;;;;;;;;5035068;28;20047;-79
2021/07/25 05:31:18;;;;;;;;;;;;;;;;;;5040187;28;20040;-79
2021/07/25 05:33:44;;;;;;;14.80;9.30;;;;;;;;;;5043685;28;20390;-79
2021/07/25 05:36:09;;;;;;;14.10;9.50;;;;;;;;;;5046823;28;20435;-79
2021/07/25 05:38:35;;;;;;;14.30;10.10;;;;;;;;;;5044691;28;20116;-79
2021/07/25 05:41:00;;;;;;;14.57;9.48;;;;;;;;;;5044532;28;20058;-78
2021/07/25 05:43:25;;;;;;;15.10;10.13;;;;;;;;;;5046340;28;20440;-79
2021/07/25 05:45:51;;;;;;;14.48;9.75;;;;;;;;;;5040203;28;20052;-79
2021/07/25 05:48:16;;;;;;;14.60;9.90;;;;;;;;;;5046144;28;20040;-78
2021/07/25 05:50:42;;;;;;;15.10;9.50;;;;;;;;;;5036730;28;20083;-79
2021/07/25 05:53:07;;;;;;;13.40;8.63;;;;;;;;;;5044398;28;20025;-79
2021/07/25 05:55:34;;;;;;;13.38;9.75;;;;;;;;;;5034592;28;20396;-79
2021/07/25 05:58:00;;;;;;;16.13;10.88;;;;;;;;;;5036361;28;20040;-79
2021/07/25 06:00:26;;;;;;;17.10;9.80;;;;;;;;;;5034674;28;20366;-79
2021/07/25 06:02:58;;;;;;;14.18;9.52;;;;;;;;;;5033081;28;20090;-79
2021/07/25 06:05:30;;;;;;;17.38;11.35;;;;;;;;;;5043208;28;20021;-79
2021/07/25 06:07:56;;;;;;;12.63;8.93;;;;;;;;;;5042402;28;20044;-79
2021/07/25 06:10:24;;;;;;;13.63;8.13;;;;;;;;;;5045739;28;20108;-79
2021/07/25 06:12:51;;;;;;;12.90;8.85;;;;;;;;;;5035201;28;20036;-79
2021/07/25 06:15:17;;;;;;;11.95;8.20;;;;;;;;;;5040277;28;20024;-79
2021/07/25 06:17:43;;;;;;;13.18;8.30;;;;;;;;;;5042629;28;20029;-79
2021/07/25 06:20:09;;;;;;;13.52;8.80;;;;;;;;;;5037948;28;20082;-79
2021/07/25 06:22:36;;;;;;;12.35;8.18;;;;;;;;;;5037427;28;20051;-79
2021/07/25 06:25:03;;;;;;;10.30;8.68;;;;;;;;;;5047901;28;20120;-78
2021/07/25 06:27:28;;;;;;;12.45;8.57;;;;;;;;;;5035742;28;20068;-79
2021/07/25 06:29:54;;;;;;;13.85;9.77;;;;;;;;;;5042256;28;20489;-79
2021/07/25 06:32:19;;;;;;;10.82;8.07;;;;;;;;;;5038615;28;20485;-79
2021/07/25 06:34:44;;;;;;;14.38;8.75;;;;;;;;;;5038721;28;20029;-79
2021/07/25 06:37:10;;;;;;;11.93;9.30;;;;;;;;;;5033635;28;20028;-79
2021/07/25 06:39:35;;;;;;;14.50;8.43;;;;;;;;;;5031735;28;20017;-78
2021/07/25 06:42:01;;;;;;;15.73;8.75;;;;;;;;;;5041458;28;20028;-79
2021/07/25 06:44:26;;;;;;;12.05;8.15;;;;;;;;;;5058010;28;20443;-78
2021/07/25 06:46:51;;;;;;;11.35;7.63;;;;;;;;;;5036880;28;20056;-79
2021/07/25 06:49:17;;;;;;;12.63;7.55;;;;;;;;;;5038628;28;20071;-79
2021/07/25 06:51:42;;;;;;;13.82;8.02;;;;;;;;;;5037804;28;20591;-81
2021/07/25 06:54:08;;;;;;;11.55;7.57;;;;;;;;;;5035983;28;20051;-80
2021/07/25 06:56:33;;;;;;;12.00;8.68;;;;;;;;;;5040349;28;20048;-80
2021/07/25 06:58:59;;;;;;;11.98;7.50;;;;;;;;;;5039218;28;20492;-82
2021/07/25 07:01:27;;;;;;;11.82;7.80;;;;;;;;;;5045857;28;20159;-81
2021/07/25 07:03:53;;;;;;;14.30;8.38;;;;;;;;;;5042156;28;20474;-81
2021/07/25 07:06:18;;;;;;;9.98;8.02;;;;;;;;;;5040034;28;20215;-81
2021/07/25 07:08:43;;;;;;;12.90;8.45;;;;;;;;;;5036729;28;20033;-80
2021/07/25 07:11:09;;;;;;;12.57;8.30;;;;;;;;;;5041304;28;20056;-82
2021/07/25 07:13:34;;;;;;;13.18;9.05;;;;;;;;;;5043515;28;20056;-85
2021/07/25 07:16:00;;;;;;;13.85;8.10;;;;;;;;;;5045286;28;20048;-84
2021/07/25 07:18:25;;;;;;;10.70;7.57;;;;;;;;;;5039131;28;20393;-83
2021/07/25 07:20:51;;;;;;;11.38;7.90;;;;;;;;;;5038833;28;20112;-81
2021/07/25 07:23:20;;;;;;;11.75;7.38;;;;;;;;;;5043315;28;20476;-80
2021/07/25 07:25:48;;;;;;;12.68;8.63;;;;;;;;;;5043470;28;20480;-81
2021/07/25 07:28:14;;;;;;;11.13;8.38;;;;;;;;;;5040796;28;20029;-81
2021/07/25 07:30:40;;;;;;;15.20;9.30;;;;;;;;;;5042627;28;20021;-81
2021/07/25 07:33:12;;;;;;;13.60;8.88;;;;;;;;;;5043783;28;20036;-81
2021/07/25 07:35:38;;;;;;;14.45;7.95;;;;;;;;;;5041189;28;20028;-79
2021/07/25 07:38:04;;;;;;;10.82;7.18;;;;;;;;;;5049530;28;20100;-79
2021/07/25 07:40:30;;;;;;;10.05;7.43;;;;;;;;;;5035699;28;20251;-79
2021/07/25 07:42:56;;;;;;;11.13;7.55;;;;;;;;;;5047573;28;20206;-79
2021/07/25 07:45:21;;;;;;;10.52;7.18;;;;;;;;;;5042652;28;20055;-79
2021/07/25 07:47:48;;;;;;;10.02;7.47;;;;;;;;;;5046970;28;20087;-79
2021/07/25 07:50:14;;;;;;;9.95;6.90;;;;;;;;;;5041894;28;20029;-79
2021/07/25 07:52:39;;;;;;;11.77;7.95;;;;;;;;;;5041872;28;20021;-79
2021/07/25 07:55:05;;;;;;;12.50;7.80;;;;;;;;;;5044780;28;20108;-78
2021/07/25 07:57:31;;;;;;;10.68;7.35;;;;;;;;;;5045908;28;20492;-79
2021/07/25 07:59:56;;;;;;;10.70;7.63;;;;;;;;;;5047194;28;20036;-79
2021/07/25 08:02:22;;;;;;;15.02;8.30;;;;;;;;;;5037446;28;20496;-79
2021/07/25 08:04:47;;;;;;;14.00;7.95;;;;;;;;;;5043995;28;20501;-79
2021/07/25 08:07:13;;;;;;;15.15;7.10;;;;;;;;;;5042190;28;20492;-79
2021/07/25 08:09:38;;;;;;;11.25;6.97;;;;;;;;;;5053802;28;20103;-78
2021/07/25 08:12:06;;;;;;;11.18;7.78;;;;;;;;;;5043640;28;20120;-79
2021/07/25 08:14:31;;;;;;;13.07;7.88;;;;;;;;;;5036660;28;20024;-78
2021/07/25 08:16:57;;;;;;;10.68;7.63;;;;;;;;;;5041839;28;20055;-78
2021/07/25 08:19:22;;;;;;;15.77;7.82;;;;;;;;;;5047595;28;20020;-78
2021/07/25 08:21:48;;;;;;;10.60;7.82;;;;;;;;;;5042923;28;20115;-78
2021/07/25 08:24:13;;;;;;;12.90;8.00;;;;;;;;;;5042254;28;20451;-78
2021/07/25 08:26:39;;;;;;;10.13;7.47;;;;;;;;;;5034977;28;20104;-79
2021/07/25 08:29:04;;;;;;;9.80;7.53;;;;;;;;;;5043659;28;20029;-79
2021/07/25 08:31:30;;;;;;;8.35;7.38;;;;;;;;;;5039939;28;20488;-78
2021/07/25 08:33:56;;;;;;;10.90;7.28;;;;;;;;;;5041414;28;20081;-78
2021/07/25 08:36:22;;;;;;;8.98;7.32;;;;;;;;;;5045407;28;20025;-78
2021/07/25 08:38:48;;;;;;;10.77;7.93;;;;;;;;;;5038108;28;20021;-78
2021/07/25 08:41:38;;;;;;;11.93;7.63;;;;;;;;;;5040329;28;20064;-78
2021/07/25 08:44:31;;;;;;;10.40;7.88;;;;;;;;;;5044047;28;20535;-78
2021/07/25 08:46:57;;;;;;;9.40;7.45;;;;;;;;;;5038468;28;20037;-77
2021/07/25 08:49:38;;;;;;;13.93;7.53;;;;;;;;;;5043179;28;20040;-78
2021/07/25 08:52:05;;;;;;;10.10;7.75;;;;;;;;;;5037930;28;20066;-78
2021/07/25 08:54:32;;;;;;;10.63;7.15;;;;;;;;;;5047074;28;20472;-78
2021/07/25 08:56:59;;;;;;;10.70;8.05;;;;;;;;;;5037792;28;20033;-79
2021/07/25 08:59:28;;;;;;;11.20;7.28;;;;;;;;;;5036072;28;20033;-78
2021/07/25 09:01:58;;;;;;;12.55;7.75;;;;;;;;;;5037912;28;20021;-78
2021/07/25 09:04:24;;;;;;;10.95;7.22;;;;;;;;;;5039201;28;20467;-79
2021/07/25 09:06:50;;;;;;;9.23;7.10;;;;;;;;;;5034950;28;20135;-78
2021/07/25 09:09:17;;;;;;;11.48;7.25;;;;;;;;;;5041077;28;20025;-77
2021/07/25 09:11:44;;;;;;;8.45;7.05;;;;;;;;;;5041789;28;20029;-78
2021/07/25 09:14:09;;;;;;;10.65;7.38;;;;;;;;;;5039580;28;20085;-79
2021/07/25 09:16:36;;;;;;;11.27;7.22;;;;;;;;;;5035668;28;20442;-78
2021/07/25 09:19:03;;;;;;;10.38;7.28;;;;;;;;;;5042650;28;20032;-79
2021/07/25 09:21:46;;;;;;;9.43;6.88;;;;;;;;;;5041362;28;20107;-78
2021/07/25 09:24:28;;;;;;;9.30;7.53;;;;;;;;;;5039643;28;20057;-78
2021/07/25 09:26:58;;;;;;;10.90;7.22;;;;;;;;;;5045127;28;20025;-79
2021/07/25 09:29:30;;;;;;;10.50;7.18;;;;;;;;;;5041054;28;20032;-77
2021/07/25 09:32:16;;;;;;;11.43;7.43;;;;;;;;;;5040145;28;20048;-78
2021/07/25 09:34:49;;;;;;;12.18;7.35;;;;;;;;;;5041380;28;20436;-78
2021/07/25 09:37:17;;;;;;;9.68;7.20;;;;;;;;;;5039400;28;20364;-78
2021/07/25 09:39:53;;;;;;;9.85;7.50;;;;;;;;;;5040832;28;20036;-78
2021/07/25 09:42:32;;;;;;;8.98;7.32;;;;;;;;;;5035849;28;20029;-78
2021/07/25 09:44:59;;;;;;;9.18;7.32;;;;;;;;;;5035560;28;20017;-77
2021/07/25 09:47:35;;;;;;;9.27;7.35;;;;;;;;;;5036792;28;20044;-77
2021/07/25 09:50:04;;;;;;;9.77;7.43;;;;;;;;;;5036961;28;20116;-77
2021/07/25 09:52:33;;;;;;;10.07;7.53;;;;;;;;;;5042844;28;20067;-76
2021/07/25 09:55:09;;;;;;;9.95;7.75;;;;;;;;;;5038442;28;20378;-77
2021/07/25 09:57:35;;;;;;;10.50;7.03;;;;;;;;;;5038137;28;20420;-77
2021/07/25 10:00:09;;;;;;;9.02;7.65;;;;;;;;;;5036862;28;20024;-78
2021/07/25 10:02:41;;;;;;;9.48;7.32;;;;;;;;;;5042115;28;20028;-77
2021/07/25 10:05:20;;;;;;;8.02;7.03;;;;;;;;;;5035670;28;20024;-78
2021/07/25 10:07:47;;;;;;;12.50;6.57;;;;;;;;;;5036789;28;20086;-77
2021/07/25 10:10:15;;;;;;;9.60;7.80;;;;;;;;;;5037663;28;20029;-77
2021/07/25 10:12:41;;;;;;;8.82;6.75;;;;;;;;;;5037054;28;20036;-79
2021/07/25 10:15:16;;;;;;;14.85;7.85;;;;;;;;;;5040994;28;20024;-79
2021/07/25 10:17:43;;;;;;;8.75;6.93;;;;;;;;;;5046655;28;20028;-77
2021/07/25 10:20:10;;;;;;;13.63;7.78;;;;;;;;;;5041375;28;20025;-79
2021/07/25 10:22:38;;;;;;;10.57;7.60;;;;;;;;;;5040595;28;20060;-79
2021/07/25 10:25:06;;;;;;;11.70;7.55;;;;;;;;;;5036806;28;20047;-79
2021/07/25 10:27:31;;;;;;;11.25;7.30;;;;;;;;;;5044288;28;20881;-76
2021/07/25 10:30:08;;;;;;;10.40;7.90;;;;;;;;;;5040251;28;20108;-78
2021/07/25 10:32:41;;;;;;;10.45;8.32;;;;;;;;;;5048739;28;20037;-77
2021/07/25 10:35:09;;;;;;;10.40;7.95;;;;;;;;;;5041553;28;20022;-77
2021/07/25 10:37:39;;;;;;;14.43;8.15;;;;;;;;;;5042377;28;20101;-77
2021/07/25 10:40:07;;;;;;;10.73;7.60;;;;;;;;;;5041972;28;20099;-79
2021/07/25 10:42:38;;;;;;;11.05;7.75;;;;;;;;;;5036187;28;20064;-79
2021/07/25 10:45:04;;;;;;;16.67;9.10;;;;;;;;;;5041317;28;20492;-78
2021/07/25 10:47:33;;;;;;;16.00;9.82;;;;;;;;;;5042936;28;20041;-78
2021/07/25 10:50:06;;;;;;;12.48;8.23;;;;;;;;;;5043702;28;20093;-78
2021/07/25 10:52:59;;;;;;;21.67;10.15;;;;;;;;;;5042208;28;20029;-78
2021/07/25 10:55:34;;;;;;;22.63;10.30;;;;;;;;;;5042618;28;20060;-77
2021/07/25 10:58:13;;;;;;;15.20;8.95;;;;;;;;;;5041626;28;20501;-78
2021/07/25 11:00:40;;;;;;;16.05;9.68;;;;;;;;;;5043054;28;20069;-79
2021/07/25 11:03:07;;;;;;;13.77;9.27;;;;;;;;;;5047456;28;20508;-78
2021/07/25 11:05:33;;;;;;;14.27;9.50;;;;;;;;;;5043368;28;20037;-79
2021/07/25 11:08:00;;;;;;;13.80;9.13;;;;;;;;;;5042772;28;20530;-78
2021/07/25 11:10:35;;;;;;;10.55;8.85;;;;;;;;;;5041535;28;20348;-79
2021/07/25 11:13:01;;;;;;;14.82;9.38;;;;;;;;;;5042096;28;20037;-79
2021/07/25 11:15:30;;;;;;;14.48;9.43;;;;;;;;;;5045796;28;20013;-79
2021/07/25 11:18:01;;;;;;;13.13;8.85;;;;;;;;;;5045850;28;20025;-79
2021/07/25 11:20:54;;;;;;;15.15;9.20;;;;;;;;;;5041172;28;20032;-79
2021/07/25 11:23:19;;;;;;;14.70;9.32;;;;;;;;;;5038908;28;20512;-79
2021/07/25 11:25:45;;;;;;;12.30;8.90;;;;;;;;;;5046563;28;20025;-79
2021/07/25 11:28:11;;;;;;;14.70;9.65;;;;;;;;;;5044264;28;20049;-78
2021/07/25 11:30:48;;;;;;;10.77;8.45;;;;;;;;;;5042200;28;20108;-78
2021/07/25 11:33:48;;;;;;;13.43;8.98;;;;;;;;;;5039652;28;20052;-78
2021/07/25 11:36:16;;;;;;;13.13;8.65;;;;;;;;;;5045963;28;20056;-80
2021/07/25 11:38:46;;;;;;;13.25;9.23;;;;;;;;;;5046985;28;20021;-81
2021/07/25 11:41:12;;;;;;;10.93;8.77;;;;;;;;;;5043996;28;20085;-81
2021/07/25 11:43:59;;;;;;;11.90;8.90;;;;;;;;;;5042826;28;20548;-80
2021/07/25 11:46:27;;;;;;;11.93;8.02;;;;;;;;;;5035423;28;20029;-80
2021/07/25 11:49:18;;;;;;;12.37;9.00;;;;;;;;;;5048372;28;20044;-81
2021/07/25 11:51:45;;;;;;;13.98;9.00;;;;;;;;;;5038872;28;20284;-81
2021/07/25 11:54:12;;;;;;;13.18;8.65;;;;;;;;;;5050759;28;20021;-80
2021/07/25 11:56:51;;;;;;;12.57;9.25;;;;;;;;;;5042737;28;20397;-81
2021/07/25 11:59:17;;;;;;;10.40;7.68;;;;;;;;;;5045046;28;20264;-80
2021/07/25 12:01:42;;;;;;;11.40;8.27;;;;;;;;;;5041941;28;20040;-83
2021/07/25 12:04:19;;;;;;;11.02;8.18;;;;;;;;;;5042109;28;20029;-81
2021/07/25 12:06:45;;;;;;;11.40;8.55;;;;;;;;;;5047463;28;20060;-81
2021/07/25 12:09:10;;;;;;;11.55;8.30;;;;;;;;;;5039398;28;20032;-81
2021/07/25 12:11:38;;;;;;;10.23;8.50;;;;;;;;;;5045671;28;20023;-80
2021/07/25 12:14:04;;;;;;;11.13;8.68;;;;;;;;;;5037650;28;20026;-80
2021/07/25 12:16:52;;;;;;;13.82;8.80;;;;;;;;;;5039341;28;20108;-80
2021/07/25 12:19:19;;;;;;;13.82;9.20;;;;;;;;;;5044081;28;20078;-80
2021/07/25 12:21:46;;;;;;;19.73;9.48;;;;;;;;;;5044997;28;20075;-79
2021/07/25 12:24:48;;;;;;;12.15;8.95;;;;;;;;;;5042269;28;20384;-80
2021/07/25 12:27:32;;;;;;;13.75;8.77;;;;;;;;;;5049767;28;20043;-79
2021/07/25 12:30:15;;;;;;;15.68;9.13;;;;;;;;;;5041094;28;20208;-79
2021/07/25 12:32:42;;;;;;;13.25;9.73;;;;;;;;;;5037323;28;20025;-78
2021/07/25 12:35:13;;;;;;;12.35;8.80;;;;;;;;;;5036796;28;20071;-79
2021/07/25 12:37:45;;;;;;;14.55;8.50;;;;;;;;;;5057479;28;20025;-78
2021/07/25 12:40:15;;;;;;;14.07;8.93;;;;;;;;;;5036908;28;20428;-79
2021/07/25 12:42:47;;;;;;;12.27;9.35;;;;;;;;;;5038721;28;20028;-78
2021/07/25 12:45:21;;;;;;;13.77;8.88;;;;;;;;;;5036091;28;20060;-78
2021/07/25 12:47:47;;;;;;;15.50;9.05;;;;;;;;;;5045284;28;20523;-80
2021/07/25 12:50:13;;;;;;;13.70;9.55;;;;;;;;;;5042054;28;20029;-80
2021/07/25 12:52:38;;;;;;;14.98;9.07;;;;;;;;;;5043252;28;20386;-80
2021/07/25 12:55:04;;;;;;;12.85;9.50;;;;;;;;;;5039487;28;20044;-81
2021/07/25 12:57:29;;;;;;;12.82;9.90;;;;;;;;;;5043424;28;20037;-79
2021/07/25 12:59:56;;;;;;;14.48;9.30;;;;;;;;;;5044302;28;20039;-79
2021/07/25 13:05:07;;;;;;;13.85;9.25;;;;;;;;;;5037728;28;20508;-78
2021/07/25 13:07:33;;;;;;;11.18;9.30;;;;;;;;;;5043299;28;20063;-78
2021/07/25 13:09:58;;;;;;;14.38;9.70;;;;;;;;;;5035631;28;20029;-78
2021/07/25 13:12:28;;;;;;;10.25;8.85;;;;;;;;;;5044301;28;20078;-78
2021/07/25 13:14:54;;;;;;;13.05;9.98;;;;;;;;;;5042846;28;20491;-78
2021/07/25 13:17:19;;;;;;;17.60;9.00;;;;;;;;;;5039922;28;20224;-79
2021/07/25 13:19:44;;;;;;;14.02;9.20;;;;;;;;;;5035496;28;20025;-79
2021/07/25 13:22:10;;;;;;;14.50;9.57;;;;;;;;;;5043539;28;20044;-78
2021/07/25 13:24:36;;;;;;;14.23;9.10;;;;;;;;;;5042584;28;20432;-79
2021/07/25 13:27:01;;;;;;;15.70;9.00;;;;;;;;;;5042967;28;20045;-80
2021/07/25 13:29:27;;;;;;;14.68;9.30;;;;;;;;;;5041896;28;20171;-79
2021/07/25 13:31:52;;;;;;;15.27;9.27;;;;;;;;;;5045615;28;20408;-80
2021/07/25 13:34:17;;;;;;;10.65;8.93;;;;;;;;;;5044248;28;20480;-80
2021/07/25 13:36:43;;;;;;;14.75;8.88;;;;;;;;;;5047413;28;20515;-80
2021/07/25 13:39:08;;;;;;;12.25;8.75;;;;;;;;;;5042049;28;20032;-80
2021/07/25 13:41:34;;;;;;;16.02;8.98;;;;;;;;;;5036240;28;20045;-80
2021/07/25 13:44:01;;;;;;;14.00;8.85;;;;;;;;;;5039356;28;20033;-82
2021/07/25 13:46:40;;;;;;;12.82;9.40;;;;;;;;;;5040946;28;20108;-78
2021/07/25 13:49:06;;;;;;;15.25;9.05;;;;;;;;;;5035538;28;20513;-79
2021/07/25 13:51:31;;;;;;;13.35;9.05;;;;;;;;;;5038780;28;20021;-79
2021/07/25 13:53:57;;;;;;;13.75;10.07;;;;;;;;;;5038719;28;20032;-79
2021/07/25 13:56:22;;;;;;;16.88;10.80;;;;;;;;;;5043003;28;20124;-79
2021/07/25 13:58:48;;;;;;;14.15;9.00;;;;;;;;;;5036002;28;20025;-79
2021/07/25 14:01:14;;;;;;;13.55;8.95;;;;;;;;;;5023982;28;20074;-80
2021/07/25 14:03:40;;;;;;;12.32;9.00;;;;;;;;;;5042881;28;20037;-79
2021/07/25 14:06:06;;;;;;;12.48;9.65;;;;;;;;;;5047862;28;20029;-79
2021/07/25 14:08:32;;;;;;;12.80;8.63;;;;;;;;;;5041811;28;20541;-79
2021/07/25 14:10:58;;;;;;;11.38;8.80;;;;;;;;;;5040828;28;20132;-79
2021/07/25 14:13:24;;;;;;;11.48;8.38;;;;;;;;;;5036295;28;20024;-79
2021/07/25 14:15:49;;;;;;;12.60;9.30;;;;;;;;;;5039208;28;20090;-79
2021/07/25 14:18:15;;;;;;;12.88;9.18;;;;;;;;;;5046925;28;20120;-79
2021/07/25 14:20:40;;;;;;;14.27;9.13;;;;;;;;;;5041528;28;20053;-79
2021/07/25 14:23:09;;;;;;;11.65;9.40;;;;;;;;;;5039691;28;20370;-79
2021/07/25 14:25:44;;;;;;;;;;;;;;;;;;5042915;28;20033;-79
2021/07/25 14:28:11;;;;;;;11.90;8.65;;;;;;;;;;5038779;28;19978;-79
2021/07/25 14:30:36;;;;;;;11.50;8.95;;;;;;;;;;5037779;28;20374;-80
2021/07/25 14:33:02;;;;;;;9.98;8.93;;;;;;;;;;5039171;28;20024;-79
2021/07/25 14:35:27;;;;;;;11.18;8.85;;;;;;;;;;5037563;28;20473;-79
2021/07/25 14:37:53;;;;;;;11.65;9.40;;;;;;;;;;5044746;28;20060;-79
2021/07/25 14:40:18;;;;;;;11.88;9.38;;;;;;;;;;5040313;28;20036;-79